sensor_id;sensor_type;location;lat;lon;timestamp;P1;durP1;ratioP1;P2;durP2;ratioP2
34960;SDS011;30789;52.030;7.110;2022-07-17T00:01:34;3.03;;;0.93;;
34960;SDS011;30789;52.030;7.110;2022-07-17T00:04:00;2.10;;;0.95;;
34960;SDS011;30789;52.030;7.110;2022-07-17T00:06:27;4.35;;;0.95;;
34960;SDS011;30789;52.030;7.110;2022-07-17T00:08:54;2.55;;;0.80;;
34960;SDS011;30789;52.030;7.110;2022-07-17T00:11:20;1.88;;;0.65;;
34960;SDS011;30789;52.030;7.110;2022-07-17T00:13:47;3.83;;;1.02;;
34960;SDS011;30789;52.030;7.110;2022-07-17T00:16:13;4.35;;;1.45;;
34960;SDS011;30789;52.030;7.110;2022-07-17T00:18:41;3.20;;;1.17;;
34960;SDS011;30789;52.030;7.110;2022-07-17T00:21:08;3.15;;;1.20;;
34960;SDS011;30789;52.030;7.110;2022-07-17T00:23:34;2.88;;;1.13;;
34960;SDS011;30789;52.030;7.110;2022-07-17T00:26:00;4.30;;;1.17;;
34960;SDS011;30789;52.030;7.110;2022-07-17T00:28:27;2.20;;;1.00;;
34960;SDS011;30789;52.030;7.110;2022-07-17T00:30:54;1.83;;;1.00;;
34960;SDS011;30789;52.030;7.110;2022-07-17T00:33:20;3.58;;;1.00;;
34960;SDS011;30789;52.030;7.110;2022-07-17T00:35:48;2.22;;;0.90;;
34960;SDS011;30789;52.030;7.110;2022-07-17T00:38:14;1.60;;;0.90;;
34960;SDS011;30789;52.030;7.110;2022-07-17T00:40:42;1.80;;;0.93;;
34960;SDS011;30789;52.030;7.110;2022-07-17T00:43:08;5.07;;;1.02;;
34960;SDS011;30789;52.030;7.110;2022-07-17T00:45:35;3.13;;;1.08;;
34960;SDS011;30789;52.030;7.110;2022-07-17T00:48:02;5.43;;;1.27;;
34960;SDS011;30789;52.030;7.110;2022-07-17T00:50:31;1.48;;;0.90;;
34960;SDS011;30789;52.030;7.110;2022-07-17T00:53:01;4.88;;;1.20;;
34960;SDS011;30789;52.030;7.110;2022-07-17T00:55:28;3.22;;;0.90;;
34960;SDS011;30789;52.030;7.110;2022-07-17T00:57:56;3.20;;;1.23;;
34960;SDS011;30789;52.030;7.110;2022-07-17T01:00:26;0.85;;;0.70;;
34960;SDS011;30789;52.030;7.110;2022-07-17T01:02:53;2.38;;;0.80;;
34960;SDS011;30789;52.030;7.110;2022-07-17T01:05:21;5.32;;;1.00;;
34960;SDS011;30789;52.030;7.110;2022-07-17T01:07:48;4.32;;;1.42;;
34960;SDS011;30789;52.030;7.110;2022-07-17T01:10:18;2.85;;;1.08;;
34960;SDS011;30789;52.030;7.110;2022-07-17T01:12:45;1.55;;;1.00;;
34960;SDS011;30789;52.030;7.110;2022-07-17T01:15:12;1.35;;;0.70;;
34960;SDS011;30789;52.030;7.110;2022-07-17T01:17:40;2.30;;;1.05;;
34960;SDS011;30789;52.030;7.110;2022-07-17T01:20:07;2.97;;;1.02;;
34960;SDS011;30789;52.030;7.110;2022-07-17T01:22:40;2.95;;;0.93;;
34960;SDS011;30789;52.030;7.110;2022-07-17T01:25:08;2.55;;;0.80;;
34960;SDS011;30789;52.030;7.110;2022-07-17T01:27:35;1.20;;;1.10;;
34960;SDS011;30789;52.030;7.110;2022-07-17T01:30:02;4.47;;;1.60;;
34960;SDS011;30789;52.030;7.110;2022-07-17T01:32:32;3.25;;;1.10;;
34960;SDS011;30789;52.030;7.110;2022-07-17T01:35:00;1.95;;;1.27;;
34960;SDS011;30789;52.030;7.110;2022-07-17T01:37:26;1.98;;;1.15;;
34960;SDS011;30789;52.030;7.110;2022-07-17T01:39:54;3.92;;;1.40;;
34960;SDS011;30789;52.030;7.110;2022-07-17T01:42:21;2.15;;;1.25;;
34960;SDS011;30789;52.030;7.110;2022-07-17T01:44:49;2.55;;;1.10;;
34960;SDS011;30789;52.030;7.110;2022-07-17T01:47:16;2.58;;;1.30;;
34960;SDS011;30789;52.030;7.110;2022-07-17T01:49:43;1.73;;;1.15;;
34960;SDS011;30789;52.030;7.110;2022-07-17T01:52:10;2.75;;;1.30;;
34960;SDS011;30789;52.030;7.110;2022-07-17T01:54:37;2.88;;;1.02;;
34960;SDS011;30789;52.030;7.110;2022-07-17T01:57:05;2.60;;;1.05;;
34960;SDS011;30789;52.030;7.110;2022-07-17T01:59:32;5.15;;;1.45;;
34960;SDS011;30789;52.030;7.110;2022-07-17T02:01:58;2.22;;;0.98;;
34960;SDS011;30789;52.030;7.110;2022-07-17T02:04:25;2.15;;;1.08;;
34960;SDS011;30789;52.030;7.110;2022-07-17T02:06:52;3.78;;;1.17;;
34960;SDS011;30789;52.030;7.110;2022-07-17T02:09:19;3.90;;;1.35;;
34960;SDS011;30789;52.030;7.110;2022-07-17T02:11:46;2.53;;;1.10;;
34960;SDS011;30789;52.030;7.110;2022-07-17T02:14:14;2.15;;;1.20;;
34960;SDS011;30789;52.030;7.110;2022-07-17T02:16:40;2.00;;;1.40;;
34960;SDS011;30789;52.030;7.110;2022-07-17T02:19:07;2.25;;;1.23;;
34960;SDS011;30789;52.030;7.110;2022-07-17T02:21:33;1.92;;;1.20;;
34960;SDS011;30789;52.030;7.110;2022-07-17T02:24:00;2.63;;;1.48;;
34960;SDS011;30789;52.030;7.110;2022-07-17T02:26:26;3.65;;;1.40;;
34960;SDS011;30789;52.030;7.110;2022-07-17T02:28:53;2.47;;;1.48;;
34960;SDS011;30789;52.030;7.110;2022-07-17T02:31:21;3.08;;;1.20;;
34960;SDS011;30789;52.030;7.110;2022-07-17T02:33:47;1.40;;;0.82;;
34960;SDS011;30789;52.030;7.110;2022-07-17T02:36:14;3.53;;;1.40;;
34960;SDS011;30789;52.030;7.110;2022-07-17T02:38:40;3.05;;;1.02;;
34960;SDS011;30789;52.030;7.110;2022-07-17T02:41:07;4.90;;;1.20;;
34960;SDS011;30789;52.030;7.110;2022-07-17T02:43:33;2.95;;;1.10;;
34960;SDS011;30789;52.030;7.110;2022-07-17T02:46:00;1.83;;;1.23;;
34960;SDS011;30789;52.030;7.110;2022-07-17T02:48:28;3.45;;;1.42;;
34960;SDS011;30789;52.030;7.110;2022-07-17T02:50:55;2.30;;;1.10;;
34960;SDS011;30789;52.030;7.110;2022-07-17T02:53:21;0.82;;;0.82;;
34960;SDS011;30789;52.030;7.110;2022-07-17T02:55:48;2.00;;;1.20;;
34960;SDS011;30789;52.030;7.110;2022-07-17T02:58:14;2.70;;;1.30;;
34960;SDS011;30789;52.030;7.110;2022-07-17T03:00:41;6.18;;;1.50;;
34960;SDS011;30789;52.030;7.110;2022-07-17T03:03:07;5.25;;;1.60;;
34960;SDS011;30789;52.030;7.110;2022-07-17T03:05:35;2.38;;;1.30;;
34960;SDS011;30789;52.030;7.110;2022-07-17T03:08:02;3.25;;;1.23;;
34960;SDS011;30789;52.030;7.110;2022-07-17T03:10:28;3.50;;;1.45;;
34960;SDS011;30789;52.030;7.110;2022-07-17T03:12:55;5.20;;;1.40;;
34960;SDS011;30789;52.030;7.110;2022-07-17T03:15:22;4.25;;;1.85;;
34960;SDS011;30789;52.030;7.110;2022-07-17T03:17:49;3.65;;;1.40;;
34960;SDS011;30789;52.030;7.110;2022-07-17T03:20:15;1.95;;;1.50;;
34960;SDS011;30789;52.030;7.110;2022-07-17T03:22:43;3.88;;;1.13;;
34960;SDS011;30789;52.030;7.110;2022-07-17T03:25:09;4.85;;;1.73;;
34960;SDS011;30789;52.030;7.110;2022-07-17T03:27:36;3.72;;;1.50;;
34960;SDS011;30789;52.030;7.110;2022-07-17T03:30:03;1.88;;;1.10;;
34960;SDS011;30789;52.030;7.110;2022-07-17T03:32:30;3.10;;;1.30;;
34960;SDS011;30789;52.030;7.110;2022-07-17T03:34:57;4.13;;;1.30;;
34960;SDS011;30789;52.030;7.110;2022-07-17T03:37:23;3.55;;;1.27;;
34960;SDS011;30789;52.030;7.110;2022-07-17T03:39:51;3.58;;;1.17;;
34960;SDS011;30789;52.030;7.110;2022-07-17T03:42:18;3.53;;;1.27;;
34960;SDS011;30789;52.030;7.110;2022-07-17T03:44:44;2.75;;;1.23;;
34960;SDS011;30789;52.030;7.110;2022-07-17T03:47:11;2.10;;;1.13;;
34960;SDS011;30789;52.030;7.110;2022-07-17T03:49:37;5.88;;;1.73;;
34960;SDS011;30789;52.030;7.110;2022-07-17T03:52:04;1.80;;;1.30;;
34960;SDS011;30789;52.030;7.110;2022-07-17T03:54:31;2.13;;;1.20;;
34960;SDS011;30789;52.030;7.110;2022-07-17T03:56:59;4.55;;;1.50;;
34960;SDS011;30789;52.030;7.110;2022-07-17T03:59:25;1.98;;;1.40;;
34960;SDS011;30789;52.030;7.110;2022-07-17T04:01:52;3.22;;;1.70;;
34960;SDS011;30789;52.030;7.110;2022-07-17T04:04:20;2.40;;;1.30;;
34960;SDS011;30789;52.030;7.110;2022-07-17T04:06:47;5.22;;;1.73;;
34960;SDS011;30789;52.030;7.110;2022-07-17T04:09:14;4.47;;;1.85;;
34960;SDS011;30789;52.030;7.110;2022-07-17T04:11:40;2.13;;;1.55;;
34960;SDS011;30789;52.030;7.110;2022-07-17T04:14:08;1.63;;;1.00;;
34960;SDS011;30789;52.030;7.110;2022-07-17T04:16:35;2.10;;;1.40;;
34960;SDS011;30789;52.030;7.110;2022-07-17T04:19:01;4.28;;;1.33;;
34960;SDS011;30789;52.030;7.110;2022-07-17T04:21:28;3.03;;;1.70;;
34960;SDS011;30789;52.030;7.110;2022-07-17T04:23:54;3.90;;;1.45;;
34960;SDS011;30789;52.030;7.110;2022-07-17T04:26:21;2.03;;;1.40;;
34960;SDS011;30789;52.030;7.110;2022-07-17T04:28:47;3.03;;;1.65;;
34960;SDS011;30789;52.030;7.110;2022-07-17T04:31:15;6.68;;;1.42;;
34960;SDS011;30789;52.030;7.110;2022-07-17T04:33:42;1.30;;;1.10;;
34960;SDS011;30789;52.030;7.110;2022-07-17T04:36:09;2.20;;;1.48;;
34960;SDS011;30789;52.030;7.110;2022-07-17T04:38:35;2.08;;;1.52;;
34960;SDS011;30789;52.030;7.110;2022-07-17T04:41:02;4.53;;;1.52;;
34960;SDS011;30789;52.030;7.110;2022-07-17T04:43:28;3.75;;;1.65;;
34960;SDS011;30789;52.030;7.110;2022-07-17T04:45:55;2.05;;;1.52;;
34960;SDS011;30789;52.030;7.110;2022-07-17T04:48:23;3.85;;;1.55;;
34960;SDS011;30789;52.030;7.110;2022-07-17T04:50:49;1.83;;;1.30;;
34960;SDS011;30789;52.030;7.110;2022-07-17T04:53:16;2.65;;;1.65;;
34960;SDS011;30789;52.030;7.110;2022-07-17T04:55:42;4.20;;;1.73;;
34960;SDS011;30789;52.030;7.110;2022-07-17T04:58:09;2.88;;;1.42;;
34960;SDS011;30789;52.030;7.110;2022-07-17T05:00:35;6.95;;;2.17;;
34960;SDS011;30789;52.030;7.110;2022-07-17T05:03:02;4.32;;;1.80;;
34960;SDS011;30789;52.030;7.110;2022-07-17T05:05:30;5.75;;;1.70;;
34960;SDS011;30789;52.030;7.110;2022-07-17T05:07:56;7.53;;;2.13;;
34960;SDS011;30789;52.030;7.110;2022-07-17T05:10:23;4.97;;;1.70;;
34960;SDS011;30789;52.030;7.110;2022-07-17T05:12:49;4.80;;;2.08;;
34960;SDS011;30789;52.030;7.110;2022-07-17T05:15:16;2.60;;;1.30;;
34960;SDS011;30789;52.030;7.110;2022-07-17T05:17:42;4.55;;;1.60;;
34960;SDS011;30789;52.030;7.110;2022-07-17T05:20:09;4.47;;;1.45;;
34960;SDS011;30789;52.030;7.110;2022-07-17T05:22:37;3.78;;;1.35;;
34960;SDS011;30789;52.030;7.110;2022-07-17T05:25:04;2.40;;;1.33;;
34960;SDS011;30789;52.030;7.110;2022-07-17T05:27:32;2.22;;;1.38;;
34960;SDS011;30789;52.030;7.110;2022-07-17T05:29:58;4.72;;;1.65;;
34960;SDS011;30789;52.030;7.110;2022-07-17T05:32:25;3.90;;;1.58;;
34960;SDS011;30789;52.030;7.110;2022-07-17T05:34:51;3.22;;;1.38;;
34960;SDS011;30789;52.030;7.110;2022-07-17T05:37:18;5.97;;;1.35;;
34960;SDS011;30789;52.030;7.110;2022-07-17T05:39:45;5.57;;;1.55;;
34960;SDS011;30789;52.030;7.110;2022-07-17T05:42:12;5.47;;;1.35;;
34960;SDS011;30789;52.030;7.110;2022-07-17T05:44:38;2.53;;;1.38;;
34960;SDS011;30789;52.030;7.110;2022-07-17T05:47:05;2.70;;;1.42;;
34960;SDS011;30789;52.030;7.110;2022-07-17T05:49:31;3.97;;;1.88;;
34960;SDS011;30789;52.030;7.110;2022-07-17T05:51:58;2.80;;;1.60;;
34960;SDS011;30789;52.030;7.110;2022-07-17T05:54:25;2.97;;;1.25;;
34960;SDS011;30789;52.030;7.110;2022-07-17T05:56:53;3.88;;;1.35;;
34960;SDS011;30789;52.030;7.110;2022-07-17T05:59:19;5.47;;;1.50;;
34960;SDS011;30789;52.030;7.110;2022-07-17T06:01:45;8.13;;;1.52;;
34960;SDS011;30789;52.030;7.110;2022-07-17T06:04:12;6.70;;;1.38;;
34960;SDS011;30789;52.030;7.110;2022-07-17T06:06:38;5.15;;;1.42;;
34960;SDS011;30789;52.030;7.110;2022-07-17T06:09:05;3.15;;;1.35;;
34960;SDS011;30789;52.030;7.110;2022-07-17T06:11:31;4.15;;;1.17;;
34960;SDS011;30789;52.030;7.110;2022-07-17T06:13:59;5.47;;;1.48;;
34960;SDS011;30789;52.030;7.110;2022-07-17T06:16:26;9.40;;;1.70;;
34960;SDS011;30789;52.030;7.110;2022-07-17T06:18:53;2.35;;;0.90;;
34960;SDS011;30789;52.030;7.110;2022-07-17T06:21:19;3.60;;;1.33;;
34960;SDS011;30789;52.030;7.110;2022-07-17T06:23:46;2.47;;;1.23;;
34960;SDS011;30789;52.030;7.110;2022-07-17T06:26:12;4.28;;;1.00;;
34960;SDS011;30789;52.030;7.110;2022-07-17T06:28:39;3.33;;;1.20;;
34960;SDS011;30789;52.030;7.110;2022-07-17T06:31:07;2.78;;;1.10;;
34960;SDS011;30789;52.030;7.110;2022-07-17T06:33:33;2.85;;;0.98;;
34960;SDS011;30789;52.030;7.110;2022-07-17T06:36:00;6.15;;;1.52;;
34960;SDS011;30789;52.030;7.110;2022-07-17T06:38:26;5.45;;;1.05;;
34960;SDS011;30789;52.030;7.110;2022-07-17T06:40:53;1.80;;;0.88;;
34960;SDS011;30789;52.030;7.110;2022-07-17T06:43:19;4.20;;;1.00;;
34960;SDS011;30789;52.030;7.110;2022-07-17T06:45:47;5.65;;;1.05;;
34960;SDS011;30789;52.030;7.110;2022-07-17T06:48:17;1.70;;;0.73;;
34960;SDS011;30789;52.030;7.110;2022-07-17T06:50:44;5.97;;;1.20;;
34960;SDS011;30789;52.030;7.110;2022-07-17T06:53:10;2.65;;;0.75;;
34960;SDS011;30789;52.030;7.110;2022-07-17T06:55:37;4.63;;;0.90;;
34960;SDS011;30789;52.030;7.110;2022-07-17T06:58:03;5.57;;;0.90;;
34960;SDS011;30789;52.030;7.110;2022-07-17T07:00:30;3.17;;;0.80;;
34960;SDS011;30789;52.030;7.110;2022-07-17T07:02:56;2.08;;;0.73;;
34960;SDS011;30789;52.030;7.110;2022-07-17T07:05:24;2.90;;;0.85;;
34960;SDS011;30789;52.030;7.110;2022-07-17T07:07:51;2.20;;;0.77;;
34960;SDS011;30789;52.030;7.110;2022-07-17T07:10:17;9.95;;;1.52;;
34960;SDS011;30789;52.030;7.110;2022-07-17T07:12:44;5.43;;;1.08;;
34960;SDS011;30789;52.030;7.110;2022-07-17T07:15:10;2.63;;;1.02;;
34960;SDS011;30789;52.030;7.110;2022-07-17T07:17:37;1.10;;;0.65;;
34960;SDS011;30789;52.030;7.110;2022-07-17T07:20:03;6.22;;;1.00;;
34960;SDS011;30789;52.030;7.110;2022-07-17T07:22:32;6.18;;;0.73;;
34960;SDS011;30789;52.030;7.110;2022-07-17T07:24:58;4.45;;;0.93;;
34960;SDS011;30789;52.030;7.110;2022-07-17T07:27:25;3.50;;;0.55;;
34960;SDS011;30789;52.030;7.110;2022-07-17T07:29:51;3.17;;;0.65;;
34960;SDS011;30789;52.030;7.110;2022-07-17T07:32:18;1.35;;;0.60;;
34960;SDS011;30789;52.030;7.110;2022-07-17T07:34:44;3.58;;;0.70;;
34960;SDS011;30789;52.030;7.110;2022-07-17T07:37:11;1.55;;;0.55;;
34960;SDS011;30789;52.030;7.110;2022-07-17T07:39:39;3.70;;;0.80;;
34960;SDS011;30789;52.030;7.110;2022-07-17T07:42:05;2.38;;;0.68;;
34960;SDS011;30789;52.030;7.110;2022-07-17T07:44:32;1.92;;;0.95;;
34960;SDS011;30789;52.030;7.110;2022-07-17T07:47:00;3.35;;;0.90;;
34960;SDS011;30789;52.030;7.110;2022-07-17T07:49:27;3.40;;;0.70;;
34960;SDS011;30789;52.030;7.110;2022-07-17T07:51:54;3.50;;;0.57;;
34960;SDS011;30789;52.030;7.110;2022-07-17T07:54:21;3.45;;;0.75;;
34960;SDS011;30789;52.030;7.110;2022-07-17T07:56:48;1.55;;;0.80;;
34960;SDS011;30789;52.030;7.110;2022-07-17T07:59:15;3.08;;;0.90;;
34960;SDS011;30789;52.030;7.110;2022-07-17T08:01:41;1.20;;;0.57;;
34960;SDS011;30789;52.030;7.110;2022-07-17T08:04:08;4.28;;;0.88;;
34960;SDS011;30789;52.030;7.110;2022-07-17T08:06:34;2.83;;;0.80;;
34960;SDS011;30789;52.030;7.110;2022-07-17T08:09:01;1.08;;;0.77;;
34960;SDS011;30789;52.030;7.110;2022-07-17T08:11:27;5.35;;;0.85;;
34960;SDS011;30789;52.030;7.110;2022-07-17T08:13:55;2.85;;;1.08;;
34960;SDS011;30789;52.030;7.110;2022-07-17T08:16:22;1.00;;;0.47;;
34960;SDS011;30789;52.030;7.110;2022-07-17T08:18:48;1.20;;;0.80;;
34960;SDS011;30789;52.030;7.110;2022-07-17T08:21:15;1.73;;;0.73;;
34960;SDS011;30789;52.030;7.110;2022-07-17T08:23:41;3.92;;;0.77;;
34960;SDS011;30789;52.030;7.110;2022-07-17T08:26:08;4.72;;;0.82;;
34960;SDS011;30789;52.030;7.110;2022-07-17T08:28:34;1.30;;;0.70;;
34960;SDS011;30789;52.030;7.110;2022-07-17T08:31:02;1.38;;;0.68;;
34960;SDS011;30789;52.030;7.110;2022-07-17T08:33:29;2.47;;;0.77;;
34960;SDS011;30789;52.030;7.110;2022-07-17T08:35:56;1.60;;;0.55;;
34960;SDS011;30789;52.030;7.110;2022-07-17T08:38:22;1.55;;;0.60;;
34960;SDS011;30789;52.030;7.110;2022-07-17T08:40:49;4.18;;;0.93;;
34960;SDS011;30789;52.030;7.110;2022-07-17T08:43:18;0.95;;;0.50;;
34960;SDS011;30789;52.030;7.110;2022-07-17T08:45:45;5.10;;;1.25;;
34960;SDS011;30789;52.030;7.110;2022-07-17T08:48:15;3.55;;;0.90;;
34960;SDS011;30789;52.030;7.110;2022-07-17T08:50:42;3.67;;;0.80;;
34960;SDS011;30789;52.030;7.110;2022-07-17T08:53:10;4.15;;;0.85;;
34960;SDS011;30789;52.030;7.110;2022-07-17T08:55:36;6.88;;;1.30;;
34960;SDS011;30789;52.030;7.110;2022-07-17T08:58:03;4.32;;;1.17;;
34960;SDS011;30789;52.030;7.110;2022-07-17T09:00:30;1.75;;;0.70;;
34960;SDS011;30789;52.030;7.110;2022-07-17T09:02:58;2.60;;;0.82;;
34960;SDS011;30789;52.030;7.110;2022-07-17T09:05:28;1.83;;;0.77;;
34960;SDS011;30789;52.030;7.110;2022-07-17T09:07:55;1.92;;;0.70;;
34960;SDS011;30789;52.030;7.110;2022-07-17T09:10:32;3.45;;;0.77;;
34960;SDS011;30789;52.030;7.110;2022-07-17T09:13:00;3.55;;;0.68;;
34960;SDS011;30789;52.030;7.110;2022-07-17T09:15:28;3.63;;;0.80;;
34960;SDS011;30789;52.030;7.110;2022-07-17T09:17:55;4.07;;;0.80;;
34960;SDS011;30789;52.030;7.110;2022-07-17T09:20:22;3.25;;;0.73;;
34960;SDS011;30789;52.030;7.110;2022-07-17T09:22:57;2.97;;;0.60;;
34960;SDS011;30789;52.030;7.110;2022-07-17T09:25:35;1.13;;;0.55;;
34960;SDS011;30789;52.030;7.110;2022-07-17T09:28:04;4.05;;;0.80;;
34960;SDS011;30789;52.030;7.110;2022-07-17T09:30:31;3.13;;;0.55;;
34960;SDS011;30789;52.030;7.110;2022-07-17T09:33:00;3.88;;;0.90;;
34960;SDS011;30789;52.030;7.110;2022-07-17T09:35:27;3.85;;;0.88;;
34960;SDS011;30789;52.030;7.110;2022-07-17T09:37:53;5.05;;;0.90;;
34960;SDS011;30789;52.030;7.110;2022-07-17T09:40:22;3.40;;;0.70;;
34960;SDS011;30789;52.030;7.110;2022-07-17T09:43:07;1.65;;;0.70;;
34960;SDS011;30789;52.030;7.110;2022-07-17T09:45:34;5.70;;;0.85;;
34960;SDS011;30789;52.030;7.110;2022-07-17T09:48:01;1.67;;;0.68;;
34960;SDS011;30789;52.030;7.110;2022-07-17T09:50:28;3.17;;;0.90;;
34960;SDS011;30789;52.030;7.110;2022-07-17T09:52:55;2.53;;;0.85;;
34960;SDS011;30789;52.030;7.110;2022-07-17T09:55:26;2.22;;;0.85;;
34960;SDS011;30789;52.030;7.110;2022-07-17T09:57:54;3.03;;;1.00;;
34960;SDS011;30789;52.030;7.110;2022-07-17T10:00:22;0.93;;;0.47;;
34960;SDS011;30789;52.030;7.110;2022-07-17T10:02:48;5.13;;;0.63;;
34960;SDS011;30789;52.030;7.110;2022-07-17T10:05:15;2.15;;;0.80;;
34960;SDS011;30789;52.030;7.110;2022-07-17T10:07:42;2.13;;;0.80;;
34960;SDS011;30789;52.030;7.110;2022-07-17T10:10:10;3.58;;;0.75;;
34960;SDS011;30789;52.030;7.110;2022-07-17T10:12:40;2.80;;;0.70;;
34960;SDS011;30789;52.030;7.110;2022-07-17T10:15:10;3.33;;;0.75;;
34960;SDS011;30789;52.030;7.110;2022-07-17T10:17:37;3.65;;;0.80;;
34960;SDS011;30789;52.030;7.110;2022-07-17T10:20:04;1.45;;;0.65;;
34960;SDS011;30789;52.030;7.110;2022-07-17T10:22:40;2.72;;;0.80;;
34960;SDS011;30789;52.030;7.110;2022-07-17T10:25:07;3.15;;;0.90;;
34960;SDS011;30789;52.030;7.110;2022-07-17T10:27:44;3.58;;;0.80;;
34960;SDS011;30789;52.030;7.110;2022-07-17T10:30:18;2.42;;;0.70;;
34960;SDS011;30789;52.030;7.110;2022-07-17T10:32:52;1.85;;;0.70;;
34960;SDS011;30789;52.030;7.110;2022-07-17T10:35:19;4.40;;;0.65;;
34960;SDS011;30789;52.030;7.110;2022-07-17T10:37:46;2.40;;;0.85;;
34960;SDS011;30789;52.030;7.110;2022-07-17T10:40:15;2.28;;;0.77;;
34960;SDS011;30789;52.030;7.110;2022-07-17T10:42:53;4.03;;;0.60;;
34960;SDS011;30789;52.030;7.110;2022-07-17T10:45:23;2.38;;;0.80;;
34960;SDS011;30789;52.030;7.110;2022-07-17T10:47:52;2.95;;;0.73;;
34960;SDS011;30789;52.030;7.110;2022-07-17T10:50:23;2.30;;;1.08;;
34960;SDS011;30789;52.030;7.110;2022-07-17T10:52:58;3.75;;;1.42;;
34960;SDS011;30789;52.030;7.110;2022-07-17T10:55:26;4.47;;;1.80;;
34960;SDS011;30789;52.030;7.110;2022-07-17T10:57:54;2.10;;;0.60;;
34960;SDS011;30789;52.030;7.110;2022-07-17T11:00:21;2.47;;;1.02;;
34960;SDS011;30789;52.030;7.110;2022-07-17T11:02:48;5.30;;;0.68;;
34960;SDS011;30789;52.030;7.110;2022-07-17T11:05:15;2.10;;;0.52;;
34960;SDS011;30789;52.030;7.110;2022-07-17T11:07:53;3.00;;;0.70;;
34960;SDS011;30789;52.030;7.110;2022-07-17T11:10:21;1.13;;;0.68;;
34960;SDS011;30789;52.030;7.110;2022-07-17T11:12:50;1.95;;;0.50;;
34960;SDS011;30789;52.030;7.110;2022-07-17T11:15:18;2.75;;;0.63;;
34960;SDS011;30789;52.030;7.110;2022-07-17T11:17:46;0.65;;;0.40;;
34960;SDS011;30789;52.030;7.110;2022-07-17T11:20:13;1.17;;;0.60;;
34960;SDS011;30789;52.030;7.110;2022-07-17T11:22:43;2.70;;;0.60;;
34960;SDS011;30789;52.030;7.110;2022-07-17T11:25:10;3.65;;;0.60;;
34960;SDS011;30789;52.030;7.110;2022-07-17T11:27:37;2.30;;;0.55;;
34960;SDS011;30789;52.030;7.110;2022-07-17T11:30:04;0.95;;;0.50;;
34960;SDS011;30789;52.030;7.110;2022-07-17T11:32:38;3.75;;;0.73;;
34960;SDS011;30789;52.030;7.110;2022-07-17T11:35:13;1.30;;;0.60;;
34960;SDS011;30789;52.030;7.110;2022-07-17T11:37:40;1.38;;;0.60;;
34960;SDS011;30789;52.030;7.110;2022-07-17T11:40:07;2.63;;;0.73;;
34960;SDS011;30789;52.030;7.110;2022-07-17T11:42:34;1.92;;;0.50;;
34960;SDS011;30789;52.030;7.110;2022-07-17T11:45:02;2.83;;;0.65;;
34960;SDS011;30789;52.030;7.110;2022-07-17T11:47:29;1.02;;;0.50;;
34960;SDS011;30789;52.030;7.110;2022-07-17T11:50:05;2.20;;;0.40;;
34960;SDS011;30789;52.030;7.110;2022-07-17T11:52:43;7.45;;;0.70;;
34960;SDS011;30789;52.030;7.110;2022-07-17T11:55:11;2.33;;;0.80;;
34960;SDS011;30789;52.030;7.110;2022-07-17T11:57:41;3.20;;;0.60;;
34960;SDS011;30789;52.030;7.110;2022-07-17T12:00:09;0.50;;;0.38;;
34960;SDS011;30789;52.030;7.110;2022-07-17T12:02:37;1.95;;;0.50;;
34960;SDS011;30789;52.030;7.110;2022-07-17T12:05:05;2.38;;;0.40;;
34960;SDS011;30789;52.030;7.110;2022-07-17T12:07:38;0.60;;;0.38;;
34960;SDS011;30789;52.030;7.110;2022-07-17T12:10:11;2.83;;;0.80;;
34960;SDS011;30789;52.030;7.110;2022-07-17T12:12:39;2.42;;;0.57;;
34960;SDS011;30789;52.030;7.110;2022-07-17T12:15:06;1.23;;;0.40;;
34960;SDS011;30789;52.030;7.110;2022-07-17T12:17:37;1.52;;;0.60;;
34960;SDS011;30789;52.030;7.110;2022-07-17T12:22:41;2.10;;;0.50;;
34960;SDS011;30789;52.030;7.110;2022-07-17T12:25:08;1.83;;;0.40;;
34960;SDS011;30789;52.030;7.110;2022-07-17T12:27:34;1.13;;;0.50;;
34960;SDS011;30789;52.030;7.110;2022-07-17T12:30:01;1.48;;;0.80;;
34960;SDS011;30789;52.030;7.110;2022-07-17T12:32:28;2.97;;;0.50;;
34960;SDS011;30789;52.030;7.110;2022-07-17T12:34:54;1.85;;;0.68;;
34960;SDS011;30789;52.030;7.110;2022-07-17T12:37:22;2.08;;;0.55;;
34960;SDS011;30789;52.030;7.110;2022-07-17T12:39:49;1.17;;;0.50;;
34960;SDS011;30789;52.030;7.110;2022-07-17T12:42:16;1.67;;;0.40;;
34960;SDS011;30789;52.030;7.110;2022-07-17T12:44:43;2.13;;;0.50;;
34960;SDS011;30789;52.030;7.110;2022-07-17T12:47:10;2.13;;;0.70;;
34960;SDS011;30789;52.030;7.110;2022-07-17T12:49:37;1.08;;;0.40;;
34960;SDS011;30789;52.030;7.110;2022-07-17T12:52:04;1.52;;;0.30;;
34960;SDS011;30789;52.030;7.110;2022-07-17T12:54:32;1.75;;;0.40;;
34960;SDS011;30789;52.030;7.110;2022-07-17T12:56:59;0.75;;;0.35;;
34960;SDS011;30789;52.030;7.110;2022-07-17T12:59:25;0.82;;;0.47;;
34960;SDS011;30789;52.030;7.110;2022-07-17T13:01:52;0.93;;;0.40;;
34960;SDS011;30789;52.030;7.110;2022-07-17T13:04:19;3.40;;;0.47;;
34960;SDS011;30789;52.030;7.110;2022-07-17T13:06:46;7.53;;;0.60;;
34960;SDS011;30789;52.030;7.110;2022-07-17T13:09:13;2.75;;;0.63;;
34960;SDS011;30789;52.030;7.110;2022-07-17T13:11:41;1.08;;;0.55;;
34960;SDS011;30789;52.030;7.110;2022-07-17T13:14:09;1.80;;;0.38;;
34960;SDS011;30789;52.030;7.110;2022-07-17T13:16:36;1.23;;;0.45;;
34960;SDS011;30789;52.030;7.110;2022-07-17T13:19:03;1.60;;;0.50;;
34960;SDS011;30789;52.030;7.110;2022-07-17T13:21:30;1.25;;;0.40;;
34960;SDS011;30789;52.030;7.110;2022-07-17T13:23:57;1.40;;;0.45;;
34960;SDS011;30789;52.030;7.110;2022-07-17T13:26:23;4.00;;;0.55;;
34960;SDS011;30789;52.030;7.110;2022-07-17T13:28:51;6.32;;;0.60;;
34960;SDS011;30789;52.030;7.110;2022-07-17T13:31:18;0.88;;;0.43;;
34960;SDS011;30789;52.030;7.110;2022-07-17T13:33:44;0.77;;;0.30;;
34960;SDS011;30789;52.030;7.110;2022-07-17T13:36:11;1.85;;;0.70;;
34960;SDS011;30789;52.030;7.110;2022-07-17T13:38:37;2.33;;;0.60;;
34960;SDS011;30789;52.030;7.110;2022-07-17T13:41:04;2.95;;;0.50;;
34960;SDS011;30789;52.030;7.110;2022-07-17T13:43:31;1.70;;;0.65;;
34960;SDS011;30789;52.030;7.110;2022-07-17T13:45:59;0.35;;;0.32;;
34960;SDS011;30789;52.030;7.110;2022-07-17T13:48:25;1.92;;;0.50;;
34960;SDS011;30789;52.030;7.110;2022-07-17T13:50:52;1.50;;;0.65;;
34960;SDS011;30789;52.030;7.110;2022-07-17T13:53:18;1.27;;;0.30;;
34960;SDS011;30789;52.030;7.110;2022-07-17T13:55:45;3.60;;;0.65;;
34960;SDS011;30789;52.030;7.110;2022-07-17T13:58:11;1.35;;;0.50;;
34960;SDS011;30789;52.030;7.110;2022-07-17T14:00:39;3.65;;;0.50;;
34960;SDS011;30789;52.030;7.110;2022-07-17T14:03:07;1.15;;;0.50;;
34960;SDS011;30789;52.030;7.110;2022-07-17T14:05:34;1.55;;;0.70;;
34960;SDS011;30789;52.030;7.110;2022-07-17T14:08:00;1.08;;;0.40;;
34960;SDS011;30789;52.030;7.110;2022-07-17T14:10:27;0.70;;;0.40;;
34960;SDS011;30789;52.030;7.110;2022-07-17T14:12:54;1.90;;;0.70;;
34960;SDS011;30789;52.030;7.110;2022-07-17T14:15:20;1.02;;;0.47;;
34960;SDS011;30789;52.030;7.110;2022-07-17T14:17:46;1.52;;;0.55;;
34960;SDS011;30789;52.030;7.110;2022-07-17T14:20:14;1.10;;;0.70;;
34960;SDS011;30789;52.030;7.110;2022-07-17T14:22:41;1.13;;;0.50;;
34960;SDS011;30789;52.030;7.110;2022-07-17T14:25:08;1.20;;;0.45;;
34960;SDS011;30789;52.030;7.110;2022-07-17T14:27:34;2.88;;;0.50;;
34960;SDS011;30789;52.030;7.110;2022-07-17T14:30:02;1.05;;;0.63;;
34960;SDS011;30789;52.030;7.110;2022-07-17T14:32:29;1.30;;;0.50;;
34960;SDS011;30789;52.030;7.110;2022-07-17T14:34:55;2.60;;;0.60;;
34960;SDS011;30789;52.030;7.110;2022-07-17T14:37:23;1.50;;;0.50;;
34960;SDS011;30789;52.030;7.110;2022-07-17T14:39:50;1.55;;;0.70;;
34960;SDS011;30789;52.030;7.110;2022-07-17T14:42:16;0.95;;;0.50;;
34960;SDS011;30789;52.030;7.110;2022-07-17T14:44:43;1.17;;;0.50;;
34960;SDS011;30789;52.030;7.110;2022-07-17T14:47:09;1.77;;;0.70;;
34960;SDS011;30789;52.030;7.110;2022-07-17T14:49:36;1.23;;;0.63;;
34960;SDS011;30789;52.030;7.110;2022-07-17T14:52:02;1.50;;;0.50;;